createdAt,value
2019-05-09T00:01:14.006Z,5.12
2019-05-09T00:03:44.226Z,8.88
2019-05-09T00:06:13.582Z,6.67
2019-05-09T00:08:44.234Z,6.30
2019-05-09T00:11:14.687Z,7.22
2019-05-09T00:13:43.526Z,6.08
2019-05-09T00:16:14.236Z,8.50
2019-05-09T00:18:43.999Z,7.15
2019-05-09T00:21:33.257Z,7.30
2019-05-09T00:24:03.545Z,4.95
2019-05-09T00:26:33.757Z,6.93
2019-05-09T00:29:14.105Z,5.92
2019-05-09T00:31:43.885Z,8.65
2019-05-09T00:34:19.806Z,5.50
2019-05-09T00:36:48.414Z,5.72
2019-05-09T00:39:16.602Z,5.87
2019-05-09T00:41:44.826Z,5.83
2019-05-09T00:44:14.712Z,6.45
2019-05-09T00:46:56.470Z,7.53
2019-05-09T00:49:26.451Z,8.03
2019-05-09T00:51:54.668Z,7.05
2019-05-09T00:54:24.062Z,7.10
2019-05-09T00:56:53.937Z,6.87
2019-05-09T00:59:24.083Z,6.47
2019-05-09T01:01:54.347Z,7.10
2019-05-09T01:04:24.154Z,6.50
2019-05-09T01:06:53.965Z,7.37
2019-05-09T01:09:24.195Z,5.83
2019-05-09T01:11:53.386Z,6.08
2019-05-09T01:14:23.399Z,6.65
2019-05-09T01:16:53.517Z,5.33
2019-05-09T01:19:23.323Z,5.45
2019-05-09T01:21:54.032Z,6.25
2019-05-09T01:24:23.256Z,5.78
2019-05-09T01:26:54.007Z,5.87
2019-05-09T01:29:23.068Z,5.40
2019-05-09T01:31:54.072Z,7.10
2019-05-09T01:34:24.110Z,6.15
2019-05-09T01:37:05.015Z,5.92
2019-05-09T01:39:34.558Z,6.85
2019-05-09T01:42:03.403Z,6.95
2019-05-09T01:44:33.467Z,6.67
2019-05-09T01:47:03.665Z,6.65
2019-05-09T01:49:33.896Z,8.20
2019-05-09T01:52:03.308Z,7.08
2019-05-09T01:54:33.268Z,8.93
2019-05-09T01:57:03.294Z,6.83
2019-05-09T01:59:33.925Z,6.87
2019-05-09T02:02:08.197Z,7.15
2019-05-09T02:04:33.404Z,7.03
2019-05-09T02:07:04.031Z,8.18
2019-05-09T02:09:34.209Z,9.45
2019-05-09T02:12:03.903Z,11.33
2019-05-09T02:14:36.478Z,10.03
2019-05-09T02:17:06.352Z,10.93
2019-05-09T02:19:36.196Z,11.90
2019-05-09T02:22:06.038Z,10.63
2019-05-09T02:24:34.255Z,10.72
2019-05-09T02:27:03.922Z,12.28
2019-05-09T02:29:33.734Z,11.67
2019-05-09T02:32:04.628Z,11.38
2019-05-09T02:34:35.348Z,12.30
2019-05-09T02:37:02.022Z,10.70
2019-05-09T02:39:30.239Z,11.73
2019-05-09T02:42:08.010Z,12.40
2019-05-09T02:44:29.074Z,12.30
2019-05-09T02:46:59.102Z,11.05
2019-05-09T02:49:28.701Z,11.38
2019-05-09T02:51:59.181Z,13.55
2019-05-09T02:54:29.753Z,13.35
2019-05-09T02:56:58.196Z,11.38
2019-05-09T02:59:29.804Z,11.73
2019-05-09T03:01:59.820Z,12.78
2019-05-09T03:04:28.559Z,10.77
2019-05-09T03:06:59.616Z,13.10
2019-05-09T03:09:28.629Z,13.18
2019-05-09T03:11:58.939Z,15.58
2019-05-09T03:14:28.704Z,12.40
2019-05-09T03:16:58.638Z,13.32
2019-05-09T03:19:29.409Z,14.20
2019-05-09T03:21:58.647Z,14.20
2019-05-09T03:24:28.835Z,15.63
2019-05-09T03:26:59.613Z,16.05
2019-05-09T03:29:29.597Z,18.43
2019-05-09T03:31:59.975Z,18.52
2019-05-09T03:34:30.124Z,17.48
2019-05-09T03:36:58.472Z,16.23
2019-05-09T03:39:27.641Z,21.10
2019-05-09T03:41:57.391Z,19.45
2019-05-09T03:44:28.250Z,19.60
2019-05-09T03:47:04.291Z,17.70
2019-05-09T03:49:32.517Z,19.07
2019-05-09T03:52:00.735Z,18.45
2019-05-09T03:54:28.992Z,19.82
2019-05-09T03:57:01.574Z,22.62
2019-05-09T03:59:29.788Z,22.37
2019-05-09T04:01:58.955Z,20.15
2019-05-09T04:04:28.113Z,21.80
2019-05-09T04:06:58.054Z,21.55
2019-05-09T04:09:27.450Z,22.37
2019-05-09T04:11:55.727Z,22.62
2019-05-09T04:14:28.394Z,22.77
2019-05-09T04:16:57.529Z,22.15
2019-05-09T04:19:27.591Z,21.73
2019-05-09T04:21:57.556Z,26.37
2019-05-09T04:24:27.973Z,21.97
2019-05-09T04:26:57.980Z,21.87
2019-05-09T04:29:28.414Z,22.93
2019-05-09T04:31:57.515Z,20.92
2019-05-09T04:34:27.559Z,19.20
2019-05-09T04:36:57.674Z,19.73
2019-05-09T04:39:28.416Z,20.47
2019-05-09T04:42:03.427Z,19.67
2019-05-09T04:44:49.844Z,20.53
2019-05-09T04:47:17.263Z,22.77
2019-05-09T04:49:45.914Z,21.75
2019-05-09T04:52:15.328Z,21.05
2019-05-09T04:54:43.524Z,20.32
2019-05-09T04:57:11.782Z,21.77
2019-05-09T04:59:40.003Z,20.53
2019-05-09T05:02:22.843Z,22.85
2019-05-09T05:04:51.065Z,23.83
2019-05-09T05:07:19.638Z,25.23
2019-05-09T05:09:48.444Z,23.32
2019-05-09T05:12:18.572Z,27.85
2019-05-09T05:14:47.594Z,31.48
2019-05-09T05:17:17.996Z,28.72
2019-05-09T05:19:47.623Z,31.00
2019-05-09T05:22:23.479Z,29.07
2019-05-09T05:24:59.447Z,29.55
2019-05-09T05:27:27.842Z,33.30
2019-05-09T05:29:58.259Z,34.40
2019-05-09T05:32:42.977Z,31.97
2019-05-09T05:35:17.760Z,35.58
2019-05-09T05:37:47.714Z,34.65
2019-05-09T05:40:17.781Z,36.20
2019-05-09T05:42:47.719Z,33.77
2019-05-09T05:45:18.157Z,34.92
2019-05-09T05:47:48.522Z,32.60
2019-05-09T05:50:17.688Z,33.48
2019-05-09T05:52:47.530Z,35.00
2019-05-09T05:55:18.035Z,34.60
2019-05-09T05:57:47.844Z,33.85
2019-05-09T06:00:18.096Z,36.15
2019-05-09T06:02:47.895Z,34.80
2019-05-09T06:05:18.734Z,37.12
2019-05-09T06:07:48.969Z,35.98
2019-05-09T06:10:18.938Z,37.48
2019-05-09T06:12:50.262Z,33.13
2019-05-09T06:15:18.571Z,37.50
2019-05-09T06:17:48.394Z,34.03
2019-05-09T06:20:17.714Z,34.25
2019-05-09T06:22:47.655Z,34.38
2019-05-09T06:25:20.101Z,35.30
2019-05-09T06:27:48.237Z,34.23
2019-05-09T06:30:28.209Z,31.65
2019-05-09T06:32:58.027Z,31.75
2019-05-09T06:35:28.238Z,27.40
2019-05-09T06:37:58.863Z,33.23
2019-05-09T06:40:28.773Z,29.72
2019-05-09T06:42:59.594Z,28.40
2019-05-09T06:45:48.487Z,31.50
2019-05-09T06:48:18.070Z,26.40
2019-05-09T06:50:48.218Z,30.10
2019-05-09T06:53:18.119Z,33.40
2019-05-09T06:55:47.599Z,31.82
2019-05-09T06:58:23.570Z,30.60
2019-05-09T07:00:53.491Z,32.75
2019-05-09T07:03:23.432Z,31.52
2019-05-09T07:05:53.314Z,32.35
2019-05-09T07:08:23.167Z,33.38
2019-05-09T07:10:51.395Z,28.60
2019-05-09T07:13:19.718Z,33.60
2019-05-09T07:15:48.209Z,33.40
2019-05-09T07:18:18.394Z,36.03
2019-05-09T07:20:48.314Z,35.83
2019-05-09T07:23:17.764Z,34.58
2019-05-09T07:25:59.591Z,35.80
2019-05-09T07:28:28.319Z,36.98
2019-05-09T07:31:04.725Z,39.83
2019-05-09T07:33:38.345Z,39.42
2019-05-09T07:36:08.564Z,36.38
2019-05-09T07:38:38.477Z,33.75
2019-05-09T07:41:08.982Z,34.98
2019-05-09T07:43:38.467Z,33.20
2019-05-09T07:46:24.080Z,41.42
2019-05-09T07:48:53.945Z,36.03
2019-05-09T07:51:22.146Z,32.88
2019-05-09T07:53:51.215Z,34.80
2019-05-09T07:56:19.417Z,31.07
2019-05-09T07:58:47.943Z,33.48
2019-05-09T08:01:18.782Z,31.93
2019-05-09T08:03:48.829Z,30.65
2019-05-09T08:06:18.348Z,32.53
2019-05-09T08:08:47.600Z,36.98
2019-05-09T08:11:18.033Z,34.23
2019-05-09T08:13:48.578Z,33.58
2019-05-09T08:16:18.447Z,30.80
2019-05-09T08:18:48.328Z,30.20
2019-05-09T08:21:18.094Z,32.90
2019-05-09T08:23:48.531Z,30.25
2019-05-09T08:26:18.896Z,29.58
2019-05-09T08:28:48.147Z,27.77
2019-05-09T08:31:17.801Z,30.90
2019-05-09T08:33:48.518Z,29.65
2019-05-09T08:36:19.825Z,28.80
2019-05-09T08:38:47.736Z,28.47
2019-05-09T08:41:18.608Z,27.26
2019-05-09T08:43:48.334Z,25.80
2019-05-09T08:46:18.222Z,28.45
2019-05-09T08:48:48.508Z,28.17
2019-05-09T08:51:24.443Z,26.80
2019-05-09T08:53:52.705Z,28.98
2019-05-09T08:56:20.920Z,31.20
2019-05-09T08:58:49.145Z,28.20
2019-05-09T09:01:30.639Z,27.40
2019-05-09T09:03:48.454Z,26.30
2019-05-09T09:06:18.385Z,26.60
2019-05-09T09:08:48.265Z,25.50
2019-05-09T09:11:18.705Z,25.32
2019-05-09T09:13:48.273Z,26.33
2019-05-09T09:16:22.070Z,26.60
2019-05-09T09:18:48.056Z,27.17
2019-05-09T09:21:18.367Z,23.57
2019-05-09T09:23:50.448Z,25.43
2019-05-09T09:26:18.338Z,24.82
2019-05-09T09:28:48.492Z,26.15
2019-05-09T09:31:18.023Z,22.45
2019-05-09T09:33:48.059Z,22.70
2019-05-09T09:36:17.822Z,22.52
2019-05-09T09:38:48.010Z,21.42
2019-05-09T09:41:18.197Z,22.92
2019-05-09T09:43:47.661Z,22.20
2019-05-09T09:46:18.178Z,23.77
2019-05-09T09:48:48.015Z,23.00
2019-05-09T09:51:18.549Z,24.77
2019-05-09T09:53:48.810Z,22.52
2019-05-09T09:56:17.791Z,22.24
2019-05-09T09:58:48.666Z,21.17
2019-05-09T10:01:18.544Z,19.73
2019-05-09T10:03:47.723Z,19.62
2019-05-09T10:06:15.938Z,21.60
2019-05-09T10:08:44.255Z,18.20
2019-05-09T10:11:12.526Z,21.35
2019-05-09T10:13:40.758Z,19.40
2019-05-09T10:16:29.142Z,18.92
2019-05-09T10:18:54.278Z,18.15
2019-05-09T10:21:29.614Z,15.53
2019-05-09T10:23:57.847Z,16.45
2019-05-09T10:26:28.419Z,13.03
2019-05-09T10:28:56.639Z,12.53
2019-05-09T10:31:24.872Z,11.60
2019-05-09T10:33:53.877Z,14.20
2019-05-09T10:36:22.114Z,14.10
2019-05-09T10:38:50.351Z,14.93
2019-05-09T10:41:18.575Z,10.82
2019-05-09T10:43:49.005Z,14.20
2019-05-09T10:46:19.649Z,14.73
2019-05-09T10:48:49.623Z,13.30
2019-05-09T10:51:18.680Z,11.57
2019-05-09T10:53:48.126Z,13.30
2019-05-09T10:56:18.730Z,11.28
2019-05-09T10:58:48.255Z,13.03
2019-05-09T11:01:18.550Z,11.03
2019-05-09T11:03:48.215Z,12.40
2019-05-09T11:06:18.353Z,10.75
2019-05-09T11:08:47.869Z,10.15
2019-05-09T11:11:18.259Z,9.78
2019-05-09T11:13:48.232Z,12.03
2019-05-09T11:16:18.499Z,13.35
2019-05-09T11:18:48.270Z,12.18
2019-05-09T11:21:19.273Z,11.15
2019-05-09T11:23:48.847Z,12.23
2019-05-09T11:26:17.864Z,10.18
2019-05-09T11:28:46.565Z,10.38
2019-05-09T11:31:15.745Z,17.37
2019-05-09T11:33:44.728Z,11.68
2019-05-09T11:36:13.449Z,9.95
2019-05-09T11:38:44.176Z,7.87
2019-05-09T11:41:12.494Z,9.65
2019-05-09T11:43:41.088Z,7.17
2019-05-09T11:46:10.612Z,6.30
2019-05-09T11:48:38.811Z,5.45
2019-05-09T11:51:08.953Z,5.47
2019-05-09T11:53:36.951Z,4.50
2019-05-09T11:56:08.051Z,4.60
2019-05-09T11:58:37.816Z,4.80
2019-05-09T12:01:05.432Z,6.25
2019-05-09T12:03:33.636Z,6.85
2019-05-09T12:06:01.851Z,8.10
2019-05-09T12:08:30.061Z,11.43
2019-05-09T12:10:58.650Z,5.50
2019-05-09T12:13:26.861Z,5.22
2019-05-09T12:15:55.060Z,5.63
2019-05-09T12:18:23.278Z,5.17
2019-05-09T12:20:51.486Z,3.58
2019-05-09T12:23:20.133Z,5.70
2019-05-09T12:25:49.107Z,3.42
2019-05-09T12:28:18.977Z,7.37
2019-05-09T12:30:48.961Z,4.17
2019-05-09T12:33:18.803Z,5.00
2019-05-09T12:35:47.762Z,5.12
2019-05-09T12:38:18.092Z,3.50
2019-05-09T12:40:48.233Z,5.22
2019-05-09T12:43:18.565Z,3.72
2019-05-09T12:45:47.832Z,6.33
2019-05-09T12:48:19.280Z,5.62
2019-05-09T12:50:48.686Z,3.72
2019-05-09T12:53:18.885Z,2.46
2019-05-09T12:55:48.961Z,4.92
2019-05-09T12:58:21.786Z,3.92
2019-05-09T13:00:51.944Z,3.98
2019-05-09T13:03:19.962Z,3.12
2019-05-09T13:05:48.505Z,4.92
2019-05-09T13:08:17.752Z,9.04
2019-05-09T13:10:48.712Z,2.87
2019-05-09T13:13:18.400Z,5.30
2019-05-09T13:15:48.947Z,5.00
2019-05-09T13:18:22.807Z,4.80
2019-05-09T13:20:48.751Z,3.77
2019-05-09T13:23:17.900Z,3.22
2019-05-09T13:25:50.234Z,5.47
2019-05-09T13:28:17.610Z,3.22
2019-05-09T13:30:48.726Z,4.20
2019-05-09T13:33:18.909Z,3.15
2019-05-09T13:35:48.690Z,3.60
2019-05-09T13:38:17.961Z,3.26
2019-05-09T13:40:52.965Z,5.90
2019-05-09T13:43:19.053Z,4.05
2019-05-09T13:45:46.914Z,4.55
2019-05-09T13:48:30.387Z,3.35
2019-05-09T13:50:45.162Z,3.77
2019-05-09T13:53:13.398Z,5.20
2019-05-09T13:55:42.064Z,4.62
2019-05-09T13:58:10.559Z,5.33
2019-05-09T14:00:40.503Z,6.00
2019-05-09T14:03:08.699Z,4.37
2019-05-09T14:05:36.919Z,4.78
2019-05-09T14:08:08.005Z,5.45
2019-05-09T14:10:35.146Z,4.65
2019-05-09T14:13:09.699Z,4.33
2019-05-09T14:15:33.623Z,4.62
2019-05-09T14:18:03.417Z,3.62
2019-05-09T14:20:31.637Z,4.67
2019-05-09T14:22:59.850Z,4.85
2019-05-09T14:25:29.111Z,4.90
2019-05-09T14:27:57.469Z,4.17
2019-05-09T14:30:27.579Z,3.70
2019-05-09T14:32:55.684Z,4.67
2019-05-09T14:35:24.816Z,5.00
2019-05-09T14:37:53.330Z,3.30
2019-05-09T14:40:21.542Z,3.17
2019-05-09T14:42:49.761Z,3.77
2019-05-09T14:45:18.295Z,3.90
2019-05-09T14:47:46.463Z,6.20
2019-05-09T14:50:14.926Z,3.87
2019-05-09T14:52:43.179Z,4.97
2019-05-09T14:55:11.623Z,3.30
2019-05-09T14:57:39.841Z,4.78
2019-05-09T15:00:08.154Z,4.77
2019-05-09T15:02:38.621Z,5.45
2019-05-09T15:05:09.178Z,4.15
2019-05-09T15:07:38.727Z,4.78
2019-05-09T15:10:08.675Z,5.35
2019-05-09T15:12:39.053Z,4.20
2019-05-09T15:15:09.400Z,3.27
2019-05-09T15:17:37.796Z,3.30
2019-05-09T15:20:08.891Z,6.08
2019-05-09T15:22:38.623Z,4.62
2019-05-09T15:25:08.769Z,3.30
2019-05-09T15:27:38.512Z,6.55
2019-05-09T15:30:06.644Z,3.05
2019-05-09T15:32:34.870Z,5.12
2019-05-09T15:35:03.108Z,6.28
2019-05-09T15:37:31.339Z,2.58
2019-05-09T15:40:00.187Z,3.95
2019-05-09T15:42:30.545Z,4.20
2019-05-09T15:44:59.015Z,3.98
2019-05-09T15:47:29.831Z,5.10
2019-05-09T15:50:14.626Z,4.62
2019-05-09T15:52:28.666Z,4.55
2019-05-09T15:54:58.042Z,5.58
2019-05-09T15:57:27.562Z,6.60
2019-05-09T15:59:58.623Z,6.42
2019-05-09T16:02:28.256Z,5.28
2019-05-09T16:04:58.242Z,6.33
2019-05-09T16:07:25.687Z,5.90
2019-05-09T16:09:53.903Z,4.40
2019-05-09T16:12:22.421Z,4.47
2019-05-09T16:14:50.662Z,4.55
2019-05-09T16:17:19.322Z,6.92
2019-05-09T16:19:48.359Z,5.87
2019-05-09T16:22:18.920Z,5.65
2019-05-09T16:24:48.589Z,7.95
2019-05-09T16:27:16.414Z,5.00
2019-05-09T16:29:44.632Z,5.65
2019-05-09T16:32:13.003Z,5.62
2019-05-09T16:34:41.516Z,6.30
2019-05-09T16:37:09.737Z,4.67
2019-05-09T16:39:38.276Z,5.87
2019-05-09T16:42:06.514Z,7.15
2019-05-09T16:44:34.728Z,6.70
2019-05-09T16:47:02.944Z,5.42
2019-05-09T16:49:31.204Z,5.87
2019-05-09T16:51:59.410Z,5.97
2019-05-09T16:54:29.252Z,5.92
2019-05-09T16:56:59.955Z,11.93
2019-05-09T16:59:28.154Z,4.53
2019-05-09T17:01:57.825Z,7.60
2019-05-09T17:04:27.804Z,5.03
2019-05-09T17:06:57.699Z,7.37
2019-05-09T17:09:25.976Z,7.62
2019-05-09T17:11:54.178Z,6.00
2019-05-09T17:14:22.393Z,6.03
2019-05-09T17:16:52.889Z,6.37
2019-05-09T17:19:20.940Z,4.97
2019-05-09T17:21:58.523Z,5.03
2019-05-09T17:24:29.586Z,6.20
2019-05-09T17:26:58.020Z,4.87
2019-05-09T17:29:28.128Z,5.47
2019-05-09T17:31:58.440Z,5.53
2019-05-09T17:34:28.715Z,4.37
2019-05-09T17:36:56.384Z,6.05
2019-05-09T17:39:24.615Z,4.83
2019-05-09T17:41:53.238Z,5.75
2019-05-09T17:44:21.516Z,5.00
2019-05-09T17:46:49.705Z,5.83
2019-05-09T17:49:17.914Z,4.37
2019-05-09T17:51:48.242Z,3.67
2019-05-09T17:54:18.097Z,5.27
2019-05-09T17:56:48.245Z,4.30
2019-05-09T17:59:18.392Z,5.87
2019-05-09T18:01:48.220Z,4.30
2019-05-09T18:04:17.924Z,4.30
2019-05-09T18:06:48.711Z,3.35
2019-05-09T18:09:16.010Z,5.53
2019-05-09T18:11:44.238Z,5.22
2019-05-09T18:14:12.707Z,5.92
2019-05-09T18:16:40.906Z,4.37
2019-05-09T18:19:09.148Z,4.67
2019-05-09T18:21:50.420Z,6.58
2019-05-09T18:24:08.878Z,7.25
2019-05-09T18:26:38.411Z,5.60
2019-05-09T18:29:06.738Z,4.75
2019-05-09T18:31:37.481Z,4.83
2019-05-09T18:34:07.772Z,5.20
2019-05-09T18:36:38.013Z,4.10
2019-05-09T18:39:07.781Z,6.10
2019-05-09T18:41:35.844Z,6.43
2019-05-09T18:44:04.080Z,8.25
2019-05-09T18:46:32.280Z,6.28
2019-05-09T18:49:00.759Z,5.47
2019-05-09T18:51:29.252Z,5.90
2019-05-09T18:53:57.487Z,8.28
2019-05-09T18:56:26.083Z,8.37
2019-05-09T18:58:54.283Z,7.33
2019-05-09T19:01:23.069Z,6.30
2019-05-09T19:03:51.278Z,6.33
2019-05-09T19:06:19.628Z,7.15
2019-05-09T19:08:47.807Z,5.67
2019-05-09T19:11:16.046Z,6.37
2019-05-09T19:13:44.285Z,7.03
2019-05-09T19:16:14.137Z,4.83
2019-05-09T19:18:53.625Z,5.62
2019-05-09T19:21:26.024Z,5.87
2019-05-09T19:23:54.211Z,6.47
2019-05-09T19:26:37.384Z,6.60
2019-05-09T19:29:06.436Z,6.83
2019-05-09T19:31:35.169Z,6.85
2019-05-09T19:34:03.487Z,6.47
2019-05-09T19:36:31.697Z,5.30
2019-05-09T19:39:00.494Z,6.40
2019-05-09T19:41:28.723Z,6.13
2019-05-09T19:43:56.929Z,5.22
2019-05-09T19:46:25.181Z,6.70
2019-05-09T19:48:53.421Z,6.70
2019-05-09T19:51:22.016Z,6.53
2019-05-09T19:53:50.217Z,7.42
2019-05-09T19:56:18.431Z,6.20
2019-05-09T19:58:46.661Z,7.28
2019-05-09T20:01:15.194Z,8.13
2019-05-09T20:03:43.396Z,6.37
2019-05-09T20:06:11.641Z,6.70
2019-05-09T20:08:39.893Z,6.03
2019-05-09T20:11:12.189Z,5.37
2019-05-09T20:13:56.899Z,5.27
2019-05-09T20:16:27.822Z,4.75
2019-05-09T20:18:56.418Z,7.75
2019-05-09T20:21:24.624Z,5.92
2019-05-09T20:23:52.917Z,6.47
2019-05-09T20:26:21.157Z,4.55
2019-05-09T20:28:49.482Z,5.08
2019-05-09T20:31:18.003Z,7.87
2019-05-09T20:33:46.544Z,6.57
2019-05-09T20:36:15.347Z,5.42
2019-05-09T20:38:44.127Z,6.33
2019-05-09T20:41:12.794Z,5.78
2019-05-09T20:43:41.217Z,5.03
2019-05-09T20:46:10.537Z,5.95
2019-05-09T20:48:39.004Z,6.35
2019-05-09T20:51:07.480Z,6.40
2019-05-09T20:53:37.865Z,5.57
2019-05-09T20:56:06.326Z,6.87
2019-05-09T20:58:34.746Z,5.20
2019-05-09T21:01:03.222Z,6.10
2019-05-09T21:03:31.641Z,6.62
2019-05-09T21:06:00.042Z,6.42
2019-05-09T21:08:28.697Z,6.37
2019-05-09T21:10:58.027Z,4.72
2019-05-09T21:13:26.545Z,8.45
2019-05-09T21:15:54.933Z,6.40
2019-05-09T21:18:23.393Z,5.92
2019-05-09T21:20:51.928Z,5.83
2019-05-09T21:23:24.911Z,6.33
2019-05-09T21:25:50.806Z,7.17
2019-05-09T21:28:19.216Z,6.08
2019-05-09T21:30:47.699Z,7.83
2019-05-09T21:33:16.092Z,5.70
2019-05-09T21:35:44.318Z,6.62
2019-05-09T21:38:12.637Z,8.73
2019-05-09T21:40:40.913Z,6.42
2019-05-09T21:43:09.437Z,6.55
2019-05-09T21:45:37.641Z,6.87
2019-05-09T21:48:06.131Z,8.03
2019-05-09T21:50:34.430Z,7.57
2019-05-09T21:53:03.062Z,7.20
2019-05-09T21:55:31.265Z,6.67
2019-05-09T21:57:59.505Z,8.08
2019-05-09T22:00:31.961Z,7.67
2019-05-09T22:03:00.427Z,7.20
2019-05-09T22:05:28.650Z,7.07
2019-05-09T22:07:57.844Z,6.92
2019-05-09T22:10:26.061Z,6.90
2019-05-09T22:12:54.277Z,7.83
2019-05-09T22:15:22.514Z,7.33
2019-05-09T22:17:50.739Z,7.60
2019-05-09T22:20:19.327Z,7.75
2019-05-09T22:22:47.559Z,7.05
2019-05-09T22:25:16.179Z,5.40
2019-05-09T22:27:44.381Z,8.70
2019-05-09T22:30:13.986Z,6.35
2019-05-09T22:32:42.214Z,8.10
2019-05-09T22:35:10.422Z,6.53
2019-05-09T22:37:38.648Z,9.73
2019-05-09T22:40:10.175Z,9.00
2019-05-09T22:42:38.714Z,8.33
2019-05-09T22:45:07.301Z,7.33
2019-05-09T22:47:35.551Z,8.63
2019-05-09T22:50:04.129Z,9.95
2019-05-09T22:52:32.333Z,8.60
2019-05-09T22:55:00.543Z,6.85
2019-05-09T22:57:28.752Z,8.68
2019-05-09T22:59:56.968Z,7.72
2019-05-09T23:02:25.195Z,8.87
2019-05-09T23:04:53.413Z,7.30
2019-05-09T23:07:21.649Z,7.78
2019-05-09T23:09:50.168Z,7.83
2019-05-09T23:12:18.384Z,8.65
2019-05-09T23:14:46.616Z,8.10
2019-05-09T23:17:14.824Z,10.78
2019-05-09T23:19:43.034Z,8.78
2019-05-09T23:22:11.929Z,8.67
2019-05-09T23:24:40.649Z,6.55
2019-05-09T23:27:10.550Z,12.88
2019-05-09T23:29:38.696Z,7.58
2019-05-09T23:32:08.550Z,10.00
2019-05-09T23:34:36.805Z,6.15
2019-05-09T23:37:05.022Z,8.10
2019-05-09T23:39:38.186Z,6.67
2019-05-09T23:42:06.418Z,6.85
2019-05-09T23:44:34.960Z,10.40
2019-05-09T23:47:03.634Z,9.75
2019-05-09T23:49:31.831Z,7.55
2019-05-09T23:52:00.389Z,8.60
2019-05-09T23:54:47.690Z,7.92
2019-05-09T23:57:34.382Z,7.37
